sensor_id;sensor_type;location;lat;lon;timestamp;pressure;altitude;pressure_sealevel;temperature;humidity
47738;BME280;33502;47.182;27.506;2022-10-15T00:00:06;100900.56;;;7.70;100.00
47738;BME280;33502;47.182;27.506;2022-10-15T00:02:32;100894.47;;;7.68;100.00
47738;BME280;33502;47.182;27.506;2022-10-15T00:04:58;100896.22;;;7.69;100.00
47738;BME280;33502;47.182;27.506;2022-10-15T00:07:24;100898.78;;;7.72;100.00
47738;BME280;33502;47.182;27.506;2022-10-15T00:09:50;100889.16;;;7.69;100.00
47738;BME280;33502;47.182;27.506;2022-10-15T00:12:16;100885.59;;;7.72;100.00
47738;BME280;33502;47.182;27.506;2022-10-15T00:14:41;100893.44;;;7.75;100.00
47738;BME280;33502;47.182;27.506;2022-10-15T00:17:07;100889.00;;;7.77;100.00
47738;BME280;33502;47.182;27.506;2022-10-15T00:19:33;100887.22;;;7.77;100.00
47738;BME280;33502;47.182;27.506;2022-10-15T00:21:59;100889.84;;;7.79;100.00
47738;BME280;33502;47.182;27.506;2022-10-15T00:24:24;100890.66;;;7.81;100.00
47738;BME280;33502;47.182;27.506;2022-10-15T00:26:50;100887.06;;;7.85;100.00
47738;BME280;33502;47.182;27.506;2022-10-15T00:29:16;100892.28;;;7.88;100.00
47738;BME280;33502;47.182;27.506;2022-10-15T00:31:42;100888.63;;;7.94;100.00
47738;BME280;33502;47.182;27.506;2022-10-15T00:34:08;100885.94;;;7.97;100.00
47738;BME280;33502;47.182;27.506;2022-10-15T00:36:35;100888.50;;;7.98;100.00
47738;BME280;33502;47.182;27.506;2022-10-15T00:39:03;100891.09;;;8.01;100.00
47738;BME280;33502;47.182;27.506;2022-10-15T00:41:33;100891.94;;;8.02;100.00
47738;BME280;33502;47.182;27.506;2022-10-15T00:46:45;100888.47;;;8.00;100.00
47738;BME280;33502;47.182;27.506;2022-10-15T00:49:38;100886.69;;;8.02;100.00
47738;BME280;33502;47.182;27.506;2022-10-15T00:52:16;100881.50;;;7.99;100.00
47738;BME280;33502;47.182;27.506;2022-10-15T00:54:50;100886.75;;;7.99;100.00
47738;BME280;33502;47.182;27.506;2022-10-15T00:57:18;100884.97;;;8.01;100.00
47738;BME280;33502;47.182;27.506;2022-10-15T00:59:49;100876.13;;;8.02;100.00
47738;BME280;33502;47.182;27.506;2022-10-15T01:02:17;100884.88;;;8.04;100.00
47738;BME280;33502;47.182;27.506;2022-10-15T01:04:44;100880.34;;;8.11;100.00
47738;BME280;33502;47.182;27.506;2022-10-15T01:07:10;100882.00;;;8.15;100.00
47738;BME280;33502;47.182;27.506;2022-10-15T01:09:37;100881.94;;;8.18;100.00
47738;BME280;33502;47.182;27.506;2022-10-15T01:12:05;100878.38;;;8.19;100.00
47738;BME280;33502;47.182;27.506;2022-10-15T01:17:27;100882.78;;;8.18;100.00
47738;BME280;33502;47.182;27.506;2022-10-15T01:28:38;100886.97;;;7.90;100.00
47738;BME280;33502;47.182;27.506;2022-10-15T01:34:02;100884.41;;;7.85;100.00
47738;BME280;33502;47.182;27.506;2022-10-15T01:39:30;100891.44;;;7.86;100.00
47738;BME280;33502;47.182;27.506;2022-10-15T01:42:04;100887.94;;;7.86;100.00
47738;BME280;33502;47.182;27.506;2022-10-15T01:44:53;100887.06;;;7.85;100.00
47738;BME280;33502;47.182;27.506;2022-10-15T01:47:48;100889.66;;;7.87;100.00
47738;BME280;33502;47.182;27.506;2022-10-15T01:50:18;100894.97;;;7.85;100.00
47738;BME280;33502;47.182;27.506;2022-10-15T01:52:47;100885.41;;;7.79;100.00
47738;BME280;33502;47.182;27.506;2022-10-15T01:55:14;100888.84;;;7.83;100.00
47738;BME280;33502;47.182;27.506;2022-10-15T01:57:43;100886.19;;;7.84;100.00
47738;BME280;33502;47.182;27.506;2022-10-15T02:00:10;100886.22;;;7.83;100.00
47738;BME280;33502;47.182;27.506;2022-10-15T02:02:39;100889.78;;;7.82;100.00
47738;BME280;33502;47.182;27.506;2022-10-15T02:05:14;100888.94;;;7.80;100.00
47738;BME280;33502;47.182;27.506;2022-10-15T02:10:23;100890.88;;;7.72;100.00
47738;BME280;33502;47.182;27.506;2022-10-15T02:16:11;100891.97;;;7.61;100.00
47738;BME280;33502;47.182;27.506;2022-10-15T02:21:08;100887.72;;;7.54;100.00
47738;BME280;33502;47.182;27.506;2022-10-15T02:26:26;100891.66;;;7.35;100.00
47738;BME280;33502;47.182;27.506;2022-10-15T02:28:56;100892.66;;;7.28;100.00
47738;BME280;33502;47.182;27.506;2022-10-15T02:31:25;100887.53;;;7.21;100.00
47738;BME280;33502;47.182;27.506;2022-10-15T02:33:57;100890.28;;;7.15;100.00
47738;BME280;33502;47.182;27.506;2022-10-15T02:36:26;100891.22;;;7.13;100.00
47738;BME280;33502;47.182;27.506;2022-10-15T02:38:54;100887.81;;;7.06;100.00
47738;BME280;33502;47.182;27.506;2022-10-15T02:41:22;100888.78;;;7.02;100.00
47738;BME280;33502;47.182;27.506;2022-10-15T02:43:48;100887.09;;;6.99;100.00
47738;BME280;33502;47.182;27.506;2022-10-15T02:46:15;100883.59;;;6.97;100.00
47738;BME280;33502;47.182;27.506;2022-10-15T02:48:43;100888.94;;;6.94;100.00
47738;BME280;33502;47.182;27.506;2022-10-15T02:51:09;100882.84;;;6.91;100.00
47738;BME280;33502;47.182;27.506;2022-10-15T02:53:34;100882.91;;;6.88;100.00
47738;BME280;33502;47.182;27.506;2022-10-15T02:56:02;100886.41;;;6.88;100.00
47738;BME280;33502;47.182;27.506;2022-10-15T02:58:29;100885.47;;;6.92;100.00
47738;BME280;33502;47.182;27.506;2022-10-15T03:00:55;100889.81;;;6.93;100.00
47738;BME280;33502;47.182;27.506;2022-10-15T03:03:21;100891.59;;;6.91;100.00
47738;BME280;33502;47.182;27.506;2022-10-15T03:05:47;100886.38;;;6.90;100.00
47738;BME280;33502;47.182;27.506;2022-10-15T03:08:15;100886.34;;;6.91;100.00
47738;BME280;33502;47.182;27.506;2022-10-15T03:10:41;100888.13;;;6.91;100.00
47738;BME280;33502;47.182;27.506;2022-10-15T03:13:08;100886.38;;;6.90;100.00
47738;BME280;33502;47.182;27.506;2022-10-15T03:15:42;100884.69;;;6.85;100.00
47738;BME280;33502;47.182;27.506;2022-10-15T03:18:08;100879.53;;;6.81;100.00
47738;BME280;33502;47.182;27.506;2022-10-15T03:20:34;100880.47;;;6.77;100.00
47738;BME280;33502;47.182;27.506;2022-10-15T03:23:00;100885.81;;;6.72;100.00
47738;BME280;33502;47.182;27.506;2022-10-15T03:25:29;100883.28;;;6.66;100.00
47738;BME280;33502;47.182;27.506;2022-10-15T03:28:00;100880.75;;;6.61;100.00
47738;BME280;33502;47.182;27.506;2022-10-15T03:30:34;100879.00;;;6.62;100.00
47738;BME280;33502;47.182;27.506;2022-10-15T03:33:00;100883.34;;;6.63;100.00
47738;BME280;33502;47.182;27.506;2022-10-15T03:35:26;100882.56;;;6.59;100.00
47738;BME280;33502;47.182;27.506;2022-10-15T03:37:53;100883.41;;;6.60;100.00
47738;BME280;33502;47.182;27.506;2022-10-15T03:40:19;100880.78;;;6.60;100.00
47738;BME280;33502;47.182;27.506;2022-10-15T03:42:49;100880.72;;;6.63;100.00
47738;BME280;33502;47.182;27.506;2022-10-15T03:45:21;100883.34;;;6.63;100.00
47738;BME280;33502;47.182;27.506;2022-10-15T03:47:54;100885.09;;;6.62;100.00
47738;BME280;33502;47.182;27.506;2022-10-15T03:50:19;100886.06;;;6.58;100.00
47738;BME280;33502;47.182;27.506;2022-10-15T03:52:45;100893.13;;;6.55;100.00
47738;BME280;33502;47.182;27.506;2022-10-15T03:55:12;100891.44;;;6.52;100.00
47738;BME280;33502;47.182;27.506;2022-10-15T03:57:41;100887.13;;;6.48;100.00
47738;BME280;33502;47.182;27.506;2022-10-15T04:00:07;100885.41;;;6.45;100.00
47738;BME280;33502;47.182;27.506;2022-10-15T04:02:39;100889.81;;;6.43;100.00
47738;BME280;33502;47.182;27.506;2022-10-15T04:05:08;100888.94;;;6.43;100.00
47738;BME280;33502;47.182;27.506;2022-10-15T04:07:40;100889.91;;;6.39;100.00
47738;BME280;33502;47.182;27.506;2022-10-15T04:10:12;100887.41;;;6.30;100.00
47738;BME280;33502;47.182;27.506;2022-10-15T04:12:39;100885.84;;;6.19;100.00
47738;BME280;33502;47.182;27.506;2022-10-15T04:15:06;100886.84;;;6.11;100.00
47738;BME280;33502;47.182;27.506;2022-10-15T04:17:32;100886.03;;;6.05;100.00
47738;BME280;33502;47.182;27.506;2022-10-15T04:19:58;100885.22;;;6.02;100.00
47738;BME280;33502;47.182;27.506;2022-10-15T04:22:25;100886.03;;;6.05;100.00
47738;BME280;33502;47.182;27.506;2022-10-15T04:24:56;100885.16;;;6.06;100.00
47738;BME280;33502;47.182;27.506;2022-10-15T04:27:28;100882.53;;;6.06;100.00
47738;BME280;33502;47.182;27.506;2022-10-15T04:30:04;100881.69;;;6.04;100.00
47738;BME280;33502;47.182;27.506;2022-10-15T04:32:30;100890.44;;;6.05;100.00
47738;BME280;33502;47.182;27.506;2022-10-15T04:34:56;100886.09;;;6.02;100.00
47738;BME280;33502;47.182;27.506;2022-10-15T04:37:35;100894.00;;;6.01;100.00
47738;BME280;33502;47.182;27.506;2022-10-15T04:40:02;100886.13;;;5.98;100.00
47738;BME280;33502;47.182;27.506;2022-10-15T04:42:30;100887.97;;;5.91;100.00
47738;BME280;33502;47.182;27.506;2022-10-15T04:44:56;100888.94;;;5.85;100.00
47738;BME280;33502;47.182;27.506;2022-10-15T04:47:22;100886.03;;;6.05;100.00
47738;BME280;33502;47.182;27.506;2022-10-15T04:49:52;100880.53;;;6.72;100.00
47738;BME280;33502;47.182;27.506;2022-10-15T04:52:47;100877.97;;;7.59;100.00
47738;BME280;33502;47.182;27.506;2022-10-15T04:55:13;100890.50;;;8.26;100.00
47738;BME280;33502;47.182;27.506;2022-10-15T04:57:39;100882.00;;;8.87;100.00
47738;BME280;33502;47.182;27.506;2022-10-15T05:00:05;100873.88;;;9.55;100.00
47738;BME280;33502;47.182;27.506;2022-10-15T05:02:31;100872.78;;;10.19;100.00
47738;BME280;33502;47.182;27.506;2022-10-15T05:05:12;100871.47;;;10.86;100.00
47738;BME280;33502;47.182;27.506;2022-10-15T05:07:46;100870.22;;;11.45;97.23
47738;BME280;33502;47.182;27.506;2022-10-15T05:10:13;100875.09;;;11.79;93.66
47738;BME280;33502;47.182;27.506;2022-10-15T05:12:39;100878.28;;;12.33;90.23
47738;BME280;33502;47.182;27.506;2022-10-15T05:15:06;100883.78;;;12.71;86.31
47738;BME280;33502;47.182;27.506;2022-10-15T05:17:32;100884.53;;;13.14;82.42
47738;BME280;33502;47.182;27.506;2022-10-15T05:19:59;100885.72;;;13.48;80.99
47738;BME280;33502;47.182;27.506;2022-10-15T05:22:27;100889.13;;;13.70;78.27
47738;BME280;33502;47.182;27.506;2022-10-15T05:24:57;100895.06;;;13.95;76.11
47738;BME280;33502;47.182;27.506;2022-10-15T05:27:29;100895.75;;;14.17;75.13
47738;BME280;33502;47.182;27.506;2022-10-15T05:29:54;100899.19;;;14.38;71.54
47738;BME280;33502;47.182;27.506;2022-10-15T05:32:24;100896.91;;;14.48;71.90
47738;BME280;33502;47.182;27.506;2022-10-15T05:34:50;100892.28;;;14.71;71.30
47738;BME280;33502;47.182;27.506;2022-10-15T05:37:16;100893.97;;;15.06;68.72
47738;BME280;33502;47.182;27.506;2022-10-15T05:39:42;100891.97;;;15.27;66.98
47738;BME280;33502;47.182;27.506;2022-10-15T05:42:09;100895.16;;;15.68;65.89
47738;BME280;33502;47.182;27.506;2022-10-15T05:44:49;100900.03;;;15.77;65.20
47738;BME280;33502;47.182;27.506;2022-10-15T05:47:15;100906.00;;;15.98;63.49
47738;BME280;33502;47.182;27.506;2022-10-15T05:49:40;100905.88;;;16.31;62.73
47738;BME280;33502;47.182;27.506;2022-10-15T05:52:14;100909.63;;;16.43;60.69
47738;BME280;33502;47.182;27.506;2022-10-15T05:54:59;100915.00;;;16.73;59.28
47738;BME280;33502;47.182;27.506;2022-10-15T05:57:25;100911.09;;;16.64;59.81
47738;BME280;33502;47.182;27.506;2022-10-15T05:59:51;100915.47;;;16.66;59.75
47738;BME280;33502;47.182;27.506;2022-10-15T06:02:16;100925.25;;;16.81;58.50
47738;BME280;33502;47.182;27.506;2022-10-15T06:04:42;100921.06;;;17.07;57.19
47738;BME280;33502;47.182;27.506;2022-10-15T06:07:08;100922.91;;;17.35;56.51
47738;BME280;33502;47.182;27.506;2022-10-15T06:09:34;100920.50;;;17.31;55.63
47738;BME280;33502;47.182;27.506;2022-10-15T06:12:00;100925.19;;;17.56;54.31
47738;BME280;33502;47.182;27.506;2022-10-15T06:14:26;100926.16;;;17.84;52.82
47738;BME280;33502;47.182;27.506;2022-10-15T06:16:52;100917.50;;;18.07;52.61
47738;BME280;33502;47.182;27.506;2022-10-15T06:19:19;100925.59;;;18.62;51.44
47738;BME280;33502;47.182;27.506;2022-10-15T06:21:46;100923.56;;;19.31;49.67
47738;BME280;33502;47.182;27.506;2022-10-15T06:24:12;100932.81;;;19.40;47.31
47738;BME280;33502;47.182;27.506;2022-10-15T06:26:37;100931.72;;;19.29;47.27
47738;BME280;33502;47.182;27.506;2022-10-15T06:29:03;100934.53;;;19.53;47.43
47738;BME280;33502;47.182;27.506;2022-10-15T06:31:30;100935.53;;;20.02;46.23
47738;BME280;33502;47.182;27.506;2022-10-15T06:33:56;100939.44;;;20.35;44.83
47738;BME280;33502;47.182;27.506;2022-10-15T06:36:22;100940.19;;;20.37;44.81
47738;BME280;33502;47.182;27.506;2022-10-15T06:38:50;100943.63;;;20.63;44.32
47738;BME280;33502;47.182;27.506;2022-10-15T06:41:15;100937.94;;;20.79;43.08
47738;BME280;33502;47.182;27.506;2022-10-15T06:43:41;100948.81;;;21.02;42.28
47738;BME280;33502;47.182;27.506;2022-10-15T06:46:08;100946.56;;;20.96;42.76
47738;BME280;33502;47.182;27.506;2022-10-15T06:48:34;100947.88;;;20.90;42.06
47738;BME280;33502;47.182;27.506;2022-10-15T06:51:00;100948.28;;;20.97;41.40
47738;BME280;33502;47.182;27.506;2022-10-15T06:53:28;100954.81;;;21.17;41.90
47738;BME280;33502;47.182;27.506;2022-10-15T06:55:58;100953.63;;;21.32;40.63
47738;BME280;33502;47.182;27.506;2022-10-15T06:58:24;100951.81;;;21.33;40.55
47738;BME280;33502;47.182;27.506;2022-10-15T07:00:50;100951.34;;;21.95;40.80
47738;BME280;33502;47.182;27.506;2022-10-15T07:03:16;100955.28;;;21.80;39.50
47738;BME280;33502;47.182;27.506;2022-10-15T07:05:41;100955.91;;;21.72;39.79
47738;BME280;33502;47.182;27.506;2022-10-15T07:08:07;100953.69;;;21.77;39.43
47738;BME280;33502;47.182;27.506;2022-10-15T07:10:33;100959.81;;;21.68;39.94
47738;BME280;33502;47.182;27.506;2022-10-15T07:12:59;100957.63;;;21.73;40.53
47738;BME280;33502;47.182;27.506;2022-10-15T07:15:26;100964.97;;;21.94;40.59
47738;BME280;33502;47.182;27.506;2022-10-15T07:17:53;100958.00;;;22.57;39.54
47738;BME280;33502;47.182;27.506;2022-10-15T07:20:30;100956.72;;;23.05;37.97
47738;BME280;33502;47.182;27.506;2022-10-15T07:22:59;100959.91;;;23.10;37.84
47738;BME280;33502;47.182;27.506;2022-10-15T07:25:29;100966.66;;;23.47;37.63
47738;BME280;33502;47.182;27.506;2022-10-15T07:27:55;100962.59;;;22.78;37.19
47738;BME280;33502;47.182;27.506;2022-10-15T07:30:22;100954.25;;;22.37;37.68
47738;BME280;33502;47.182;27.506;2022-10-15T07:32:50;100955.75;;;22.30;38.99
47738;BME280;33502;47.182;27.506;2022-10-15T07:35:16;100955.25;;;22.36;38.36
47738;BME280;33502;47.182;27.506;2022-10-15T07:37:41;100954.88;;;22.73;37.93
47738;BME280;33502;47.182;27.506;2022-10-15T07:40:07;100953.16;;;22.17;38.71
47738;BME280;33502;47.182;27.506;2022-10-15T07:42:33;100959.22;;;22.64;37.56
47738;BME280;33502;47.182;27.506;2022-10-15T07:44:59;100957.16;;;22.57;37.30
47738;BME280;33502;47.182;27.506;2022-10-15T07:47:25;100964.19;;;23.01;37.26
47738;BME280;33502;47.182;27.506;2022-10-15T07:49:50;100959.81;;;22.68;37.27
47738;BME280;33502;47.182;27.506;2022-10-15T07:52:16;100964.66;;;22.85;36.51
47738;BME280;33502;47.182;27.506;2022-10-15T07:54:42;100967.81;;;22.91;36.12
47738;BME280;33502;47.182;27.506;2022-10-15T07:57:08;100961.44;;;22.92;35.68
47738;BME280;33502;47.182;27.506;2022-10-15T07:59:34;100954.81;;;22.52;35.84
47738;BME280;33502;47.182;27.506;2022-10-15T08:02:00;100955.72;;;23.06;35.94
47738;BME280;33502;47.182;27.506;2022-10-15T08:04:26;100954.66;;;22.97;35.61
47738;BME280;33502;47.182;27.506;2022-10-15T08:06:51;100954.81;;;23.69;34.48
47738;BME280;33502;47.182;27.506;2022-10-15T08:09:17;100953.78;;;22.76;34.39
47738;BME280;33502;47.182;27.506;2022-10-15T08:11:43;100961.88;;;22.09;35.05
47738;BME280;33502;47.182;27.506;2022-10-15T08:14:11;100968.41;;;21.62;36.12
47738;BME280;33502;47.182;27.506;2022-10-15T08:16:36;100966.25;;;21.31;36.62
47738;BME280;33502;47.182;27.506;2022-10-15T08:19:02;100963.97;;;20.54;37.21
47738;BME280;33502;47.182;27.506;2022-10-15T08:21:28;100964.19;;;20.51;38.17
47738;BME280;33502;47.182;27.506;2022-10-15T08:23:54;100963.72;;;20.70;37.64
47738;BME280;33502;47.182;27.506;2022-10-15T08:26:28;100959.88;;;20.01;38.53
47738;BME280;33502;47.182;27.506;2022-10-15T08:28:54;100963.63;;;19.21;38.90
47738;BME280;33502;47.182;27.506;2022-10-15T08:31:21;100966.03;;;18.98;40.01
47738;BME280;33502;47.182;27.506;2022-10-15T08:33:46;100961.88;;;18.67;40.60
47738;BME280;33502;47.182;27.506;2022-10-15T08:36:12;100959.41;;;18.23;40.91
47738;BME280;33502;47.182;27.506;2022-10-15T08:38:41;100955.28;;;18.17;42.18
47738;BME280;33502;47.182;27.506;2022-10-15T08:41:26;100969.75;;;18.14;43.29
47738;BME280;33502;47.182;27.506;2022-10-15T08:43:54;100956.28;;;18.43;41.99
47738;BME280;33502;47.182;27.506;2022-10-15T08:46:28;100966.22;;;18.14;41.88
47738;BME280;33502;47.182;27.506;2022-10-15T08:48:58;100971.41;;;17.74;41.74
47738;BME280;33502;47.182;27.506;2022-10-15T08:51:29;100968.25;;;17.81;42.11
47738;BME280;33502;47.182;27.506;2022-10-15T08:54:02;100966.63;;;18.08;41.68
47738;BME280;33502;47.182;27.506;2022-10-15T08:56:36;100966.53;;;17.95;41.70
47738;BME280;33502;47.182;27.506;2022-10-15T09:02:15;100964.41;;;18.14;41.89
47738;BME280;33502;47.182;27.506;2022-10-15T09:04:49;100963.06;;;18.07;42.43
47738;BME280;33502;47.182;27.506;2022-10-15T09:09:55;100965.28;;;17.72;42.67
47738;BME280;33502;47.182;27.506;2022-10-15T09:15:04;100970.56;;;18.02;42.66
47738;BME280;33502;47.182;27.506;2022-10-15T09:17:35;100959.13;;;18.13;43.26
47738;BME280;33502;47.182;27.506;2022-10-15T09:20:04;100972.66;;;17.97;42.16
47738;BME280;33502;47.182;27.506;2022-10-15T09:22:33;100964.25;;;18.30;41.54
47738;BME280;33502;47.182;27.506;2022-10-15T09:25:09;100969.59;;;18.45;41.58
47738;BME280;33502;47.182;27.506;2022-10-15T09:27:38;100966.66;;;18.35;41.72
47738;BME280;33502;47.182;27.506;2022-10-15T09:44:14;100963.16;;;18.47;42.25
47738;BME280;33502;47.182;27.506;2022-10-15T09:46:47;100957.31;;;19.22;42.16
47738;BME280;33502;47.182;27.506;2022-10-15T09:49:16;100958.34;;;19.71;40.13
47738;BME280;33502;47.182;27.506;2022-10-15T09:54:27;100958.34;;;19.58;40.09
47738;BME280;33502;47.182;27.506;2022-10-15T09:56:56;100948.16;;;19.12;40.19
47738;BME280;33502;47.182;27.506;2022-10-15T09:59:23;100954.88;;;18.92;41.13
47738;BME280;33502;47.182;27.506;2022-10-15T10:04:41;100945.25;;;19.28;41.17
47738;BME280;33502;47.182;27.506;2022-10-15T10:07:07;100949.13;;;19.24;41.28
47738;BME280;33502;47.182;27.506;2022-10-15T10:09:58;100950.56;;;18.89;41.05
47738;BME280;33502;47.182;27.506;2022-10-15T10:12:28;100944.94;;;19.20;40.68
47738;BME280;33502;47.182;27.506;2022-10-15T10:15:29;100942.25;;;19.58;40.30
47738;BME280;33502;47.182;27.506;2022-10-15T10:17:51;100942.78;;;19.12;40.33
47738;BME280;33502;47.182;27.506;2022-10-15T10:20:19;100937.31;;;18.73;41.25
47738;BME280;33502;47.182;27.506;2022-10-15T10:25:28;100936.88;;;18.67;41.52
47738;BME280;33502;47.182;27.506;2022-10-15T10:27:58;100939.28;;;18.57;41.71
47738;BME280;33502;47.182;27.506;2022-10-15T10:30:32;100933.03;;;19.11;41.95
47738;BME280;33502;47.182;27.506;2022-10-15T10:32:59;100930.88;;;19.42;41.09
47738;BME280;33502;47.182;27.506;2022-10-15T10:35:34;100930.84;;;19.16;40.75
47738;BME280;33502;47.182;27.506;2022-10-15T10:38:01;100937.50;;;18.70;41.09
47738;BME280;33502;47.182;27.506;2022-10-15T10:40:29;100933.88;;;19.37;40.84
47738;BME280;33502;47.182;27.506;2022-10-15T10:48:50;100929.28;;;20.14;40.36
47738;BME280;33502;47.182;27.506;2022-10-15T10:56:32;100918.28;;;19.81;38.29
47738;BME280;33502;47.182;27.506;2022-10-15T10:59:03;100922.59;;;19.45;38.78
47738;BME280;33502;47.182;27.506;2022-10-15T11:01:34;100918.06;;;19.58;38.38
47738;BME280;33502;47.182;27.506;2022-10-15T11:04:01;100923.34;;;19.21;38.53
47738;BME280;33502;47.182;27.506;2022-10-15T11:09:28;100908.16;;;19.97;38.00
47738;BME280;33502;47.182;27.506;2022-10-15T11:12:13;100900.25;;;20.31;37.89
47738;BME280;33502;47.182;27.506;2022-10-15T11:14:56;100907.19;;;20.22;37.76
47738;BME280;33502;47.182;27.506;2022-10-15T11:25:53;100904.97;;;19.28;39.05
47738;BME280;33502;47.182;27.506;2022-10-15T11:42:24;100894.97;;;18.91;38.71
47738;BME280;33502;47.182;27.506;2022-10-15T11:47:35;100886.50;;;19.10;40.75
47738;BME280;33502;47.182;27.506;2022-10-15T11:50:36;100885.34;;;19.40;38.91
47738;BME280;33502;47.182;27.506;2022-10-15T11:55:56;100883.13;;;19.71;38.58
47738;BME280;33502;47.182;27.506;2022-10-15T12:01:02;100889.34;;;19.97;37.72
47738;BME280;33502;47.182;27.506;2022-10-15T12:03:32;100888.19;;;20.37;36.72
47738;BME280;33502;47.182;27.506;2022-10-15T12:06:13;100878.91;;;21.00;36.51
47738;BME280;33502;47.182;27.506;2022-10-15T12:08:41;100881.63;;;20.41;36.91
47738;BME280;33502;47.182;27.506;2022-10-15T12:11:32;100887.06;;;19.91;37.70
47738;BME280;33502;47.182;27.506;2022-10-15T12:14:19;100879.66;;;19.94;38.23
47738;BME280;33502;47.182;27.506;2022-10-15T12:17:35;100877.50;;;20.00;36.89
47738;BME280;33502;47.182;27.506;2022-10-15T12:20:06;100881.66;;;20.04;36.87
47738;BME280;33502;47.182;27.506;2022-10-15T12:22:39;100884.13;;;20.07;37.14
47738;BME280;33502;47.182;27.506;2022-10-15T12:28:02;100887.13;;;19.78;38.02
47738;BME280;33502;47.182;27.506;2022-10-15T12:30:33;100878.13;;;20.51;37.52
47738;BME280;33502;47.182;27.506;2022-10-15T12:33:03;100876.72;;;21.28;36.00
47738;BME280;33502;47.182;27.506;2022-10-15T12:35:33;100883.72;;;21.19;35.33
47738;BME280;33502;47.182;27.506;2022-10-15T12:38:23;100883.84;;;20.47;36.72
47738;BME280;33502;47.182;27.506;2022-10-15T12:41:06;100879.44;;;19.98;37.10
47738;BME280;33502;47.182;27.506;2022-10-15T12:43:35;100878.00;;;19.55;38.14
47738;BME280;33502;47.182;27.506;2022-10-15T12:46:05;100877.72;;;18.95;38.99
47738;BME280;33502;47.182;27.506;2022-10-15T12:48:42;100884.75;;;18.84;39.40
47738;BME280;33502;47.182;27.506;2022-10-15T12:53:41;100878.75;;;18.80;39.83
47738;BME280;33502;47.182;27.506;2022-10-15T13:11:45;100874.72;;;18.60;39.70
47738;BME280;33502;47.182;27.506;2022-10-15T13:14:15;100872.22;;;18.44;39.77
47738;BME280;33502;47.182;27.506;2022-10-15T13:16:44;100870.75;;;18.26;40.07
47738;BME280;33502;47.182;27.506;2022-10-15T13:19:20;100868.53;;;18.32;40.30
47738;BME280;33502;47.182;27.506;2022-10-15T13:21:57;100869.97;;;18.51;40.77
47738;BME280;33502;47.182;27.506;2022-10-15T13:24:29;100862.25;;;18.59;39.96
47738;BME280;33502;47.182;27.506;2022-10-15T13:27:13;100867.38;;;18.49;39.47
47738;BME280;33502;47.182;27.506;2022-10-15T13:29:39;100870.94;;;18.23;39.93
47738;BME280;33502;47.182;27.506;2022-10-15T13:32:12;100863.56;;;17.99;40.26
47738;BME280;33502;47.182;27.506;2022-10-15T13:34:40;100861.50;;;17.75;40.28
47738;BME280;33502;47.182;27.506;2022-10-15T13:37:16;100866.78;;;17.63;41.06
47738;BME280;33502;47.182;27.506;2022-10-15T13:39:44;100862.47;;;17.89;41.35
47738;BME280;33502;47.182;27.506;2022-10-15T13:42:19;100858.69;;;18.06;41.48
47738;BME280;33502;47.182;27.506;2022-10-15T13:47:41;100861.44;;;17.34;40.86
47738;BME280;33502;47.182;27.506;2022-10-15T13:53:21;100865.72;;;16.63;42.15
47738;BME280;33502;47.182;27.506;2022-10-15T13:55:53;100867.44;;;16.34;42.51
47738;BME280;33502;47.182;27.506;2022-10-15T13:58:28;100865.88;;;16.30;42.99
47738;BME280;33502;47.182;27.506;2022-10-15T14:01:02;100867.28;;;16.21;43.36
47738;BME280;33502;47.182;27.506;2022-10-15T14:03:34;100852.63;;;16.12;43.50
47738;BME280;33502;47.182;27.506;2022-10-15T14:06:14;100849.44;;;16.21;43.80
47738;BME280;33502;47.182;27.506;2022-10-15T14:08:41;100860.63;;;16.28;44.27
47738;BME280;33502;47.182;27.506;2022-10-15T14:11:10;100860.28;;;16.34;43.23
47738;BME280;33502;47.182;27.506;2022-10-15T14:18:54;100850.41;;;15.89;44.17
47738;BME280;33502;47.182;27.506;2022-10-15T14:21:24;100852.53;;;15.50;44.27
47738;BME280;33502;47.182;27.506;2022-10-15T14:24:11;100857.88;;;15.17;45.35
47738;BME280;33502;47.182;27.506;2022-10-15T14:26:39;100853.44;;;14.82;46.11
47738;BME280;33502;47.182;27.506;2022-10-15T14:29:12;100855.88;;;14.52;45.87
47738;BME280;33502;47.182;27.506;2022-10-15T14:31:45;100863.28;;;14.28;47.33
47738;BME280;33502;47.182;27.506;2022-10-15T14:36:59;100863.50;;;13.87;48.33
47738;BME280;33502;47.182;27.506;2022-10-15T14:44:25;100853.06;;;13.44;49.76
47738;BME280;33502;47.182;27.506;2022-10-15T14:46:59;100852.75;;;13.31;49.90
47738;BME280;33502;47.182;27.506;2022-10-15T14:49:29;100856.75;;;13.21;50.20
47738;BME280;33502;47.182;27.506;2022-10-15T14:52:16;100855.47;;;13.11;50.18
47738;BME280;33502;47.182;27.506;2022-10-15T14:54:57;100856.78;;;13.01;50.60
47738;BME280;33502;47.182;27.506;2022-10-15T14:57:26;100857.00;;;12.96;50.11
47738;BME280;33502;47.182;27.506;2022-10-15T14:59:55;100857.47;;;12.85;50.89
47738;BME280;33502;47.182;27.506;2022-10-15T15:02:24;100853.66;;;12.70;51.98
47738;BME280;33502;47.182;27.506;2022-10-15T15:07:37;100856.56;;;12.44;52.52
47738;BME280;33502;47.182;27.506;2022-10-15T15:10:04;100863.09;;;12.37;52.61
47738;BME280;33502;47.182;27.506;2022-10-15T15:12:31;100867.03;;;12.26;53.23
47738;BME280;33502;47.182;27.506;2022-10-15T15:14:57;100867.59;;;12.12;53.45
47738;BME280;33502;47.182;27.506;2022-10-15T15:17:24;100861.84;;;12.01;54.63
47738;BME280;33502;47.182;27.506;2022-10-15T15:19:51;100867.69;;;11.87;55.17
47738;BME280;33502;47.182;27.506;2022-10-15T15:22:32;100866.53;;;11.71;55.69